createdAt,value
2019-03-08T00:00:17.634Z,98988.02
2019-03-08T00:02:44.588Z,98991.33
2019-03-08T00:05:11.520Z,99003.14
2019-03-08T00:07:38.498Z,99007.98
2019-03-08T00:10:05.619Z,99026.80
2019-03-08T00:12:32.588Z,99015.33
2019-03-08T00:14:59.511Z,99037.57
2019-03-08T00:17:26.468Z,99025.89
2019-03-08T00:19:53.426Z,99015.73
2019-03-08T00:22:20.532Z,99019.84
2019-03-08T00:24:47.453Z,99031.78
2019-03-08T00:27:14.457Z,99030.23
2019-03-08T00:29:41.369Z,99026.84
2019-03-08T00:32:08.511Z,99018.30
2019-03-08T00:34:35.492Z,99035.95
2019-03-08T00:37:03.626Z,99028.98
2019-03-08T00:39:30.626Z,99017.84
2019-03-08T00:41:57.603Z,99036.88
2019-03-08T00:44:26.239Z,99029.88
2019-03-08T00:46:53.197Z,99025.86
2019-03-08T00:49:20.165Z,99034.26
2019-03-08T00:51:47.189Z,99035.69
2019-03-08T00:54:14.178Z,99043.64
2019-03-08T00:56:41.251Z,99050.16
2019-03-08T00:59:08.425Z,99048.45
2019-03-08T01:01:35.343Z,99037.51
2019-03-08T01:04:02.321Z,99057.30
2019-03-08T01:06:29.244Z,99050.73
2019-03-08T01:08:56.186Z,99060.50
2019-03-08T01:11:23.290Z,99053.52
2019-03-08T01:13:50.454Z,99024.77
2019-03-08T01:16:17.385Z,99058.09
2019-03-08T01:18:44.353Z,99066.96
2019-03-08T01:21:11.278Z,99061.20
2019-03-08T01:23:38.380Z,99071.00
2019-03-08T01:26:05.397Z,99084.63
2019-03-08T01:28:34.126Z,99094.33
2019-03-08T01:31:01.246Z,99089.42
2019-03-08T01:33:28.211Z,99094.71
2019-03-08T01:35:55.137Z,99102.77
2019-03-08T01:38:22.063Z,99104.66
2019-03-08T01:40:49.064Z,99104.98
2019-03-08T01:43:16.014Z,99101.20
2019-03-08T01:45:42.972Z,99110.78
2019-03-08T01:48:10.187Z,99109.00
2019-03-08T01:50:37.158Z,99103.59
2019-03-08T01:53:04.236Z,99114.34
2019-03-08T01:55:31.210Z,99108.20
2019-03-08T01:57:58.155Z,99121.80
2019-03-08T02:00:25.126Z,99118.88
2019-03-08T02:02:52.073Z,99114.71
2019-03-08T02:05:19.983Z,99107.31
2019-03-08T02:07:46.907Z,99112.52
2019-03-08T02:10:14.168Z,99115.87
2019-03-08T02:12:42.110Z,99121.22
2019-03-08T02:15:11.313Z,99127.59
2019-03-08T02:17:38.318Z,99120.11
2019-03-08T02:20:06.529Z,99129.23
2019-03-08T02:22:33.513Z,99144.34
2019-03-08T02:25:00.489Z,99137.61
2019-03-08T02:27:27.395Z,99158.67
2019-03-08T02:29:54.405Z,99164.45
2019-03-08T02:32:21.336Z,99190.44
2019-03-08T02:34:48.282Z,99177.08
2019-03-08T02:37:15.543Z,99184.16
2019-03-08T02:39:42.541Z,99175.63
2019-03-08T02:42:09.471Z,99197.89
2019-03-08T02:44:36.433Z,99205.31
2019-03-08T02:47:03.509Z,99207.92
2019-03-08T02:49:30.657Z,99195.13
2019-03-08T02:51:57.602Z,99194.47
2019-03-08T02:54:25.029Z,99218.05
2019-03-08T02:56:53.775Z,99218.77
2019-03-08T02:59:20.767Z,99213.80
2019-03-08T03:01:47.686Z,99209.28
2019-03-08T03:04:14.965Z,99224.16
2019-03-08T03:06:41.944Z,99219.98
2019-03-08T03:09:09.194Z,99219.41
2019-03-08T03:11:36.160Z,99225.11
2019-03-08T03:14:03.073Z,99217.94
2019-03-08T03:16:30.060Z,99227.21
2019-03-08T03:18:57.113Z,99223.70
2019-03-08T03:21:24.186Z,99241.51
2019-03-08T03:23:51.104Z,99242.60
2019-03-08T03:26:18.373Z,99238.45
2019-03-08T03:28:45.294Z,99226.01
2019-03-08T03:31:12.470Z,99242.94
2019-03-08T03:33:39.390Z,99254.12
2019-03-08T03:36:06.367Z,99264.32
2019-03-08T03:38:34.638Z,99264.48
2019-03-08T03:41:01.575Z,99274.33
2019-03-08T03:43:30.729Z,99268.95
2019-03-08T03:45:57.736Z,99271.38
2019-03-08T03:48:24.694Z,99279.53
2019-03-08T03:50:51.704Z,99274.94
2019-03-08T03:53:18.650Z,99283.44
2019-03-08T03:55:45.631Z,99289.14
2019-03-08T03:58:12.576Z,99292.47
2019-03-08T04:00:39.697Z,99305.17
2019-03-08T04:03:06.648Z,99296.34
2019-03-08T04:05:33.733Z,99302.45
2019-03-08T04:08:00.727Z,99319.23
2019-03-08T04:10:27.824Z,99325.25
2019-03-08T04:12:55.930Z,99333.16
2019-03-08T04:15:22.928Z,99339.49
2019-03-08T04:17:49.878Z,99341.67
2019-03-08T04:20:17.631Z,99353.70
2019-03-08T04:22:45.811Z,99352.75
2019-03-08T04:25:12.862Z,99359.78
2019-03-08T04:27:41.731Z,99366.40
2019-03-08T04:30:10.902Z,99377.58
2019-03-08T04:32:38.233Z,99381.45
2019-03-08T04:35:05.270Z,99386.59
2019-03-08T04:37:32.273Z,99390.45
2019-03-08T04:39:59.254Z,99392.08
2019-03-08T04:42:26.234Z,99399.36
2019-03-08T04:44:53.383Z,99400.80
2019-03-08T04:47:20.377Z,99404.70
2019-03-08T04:49:47.526Z,99404.92
2019-03-08T04:52:14.514Z,99416.28
2019-03-08T04:54:41.477Z,99416.66
2019-03-08T04:57:08.464Z,99433.19
2019-03-08T04:59:35.434Z,99429.00
2019-03-08T05:02:02.441Z,99439.88
2019-03-08T05:04:29.535Z,99432.27
2019-03-08T05:06:56.751Z,99438.49
2019-03-08T05:09:23.681Z,99439.41
2019-03-08T05:11:50.679Z,99445.62
2019-03-08T05:14:17.623Z,99447.59
2019-03-08T05:16:44.601Z,99452.39
2019-03-08T05:19:11.582Z,99460.22
2019-03-08T05:21:38.576Z,99459.70
2019-03-08T05:24:06.853Z,99476.42
2019-03-08T05:26:33.845Z,99474.98
2019-03-08T05:29:00.791Z,99475.21
2019-03-08T05:31:27.873Z,99484.94
2019-03-08T05:33:54.838Z,99479.64
2019-03-08T05:36:22.311Z,99474.84
2019-03-08T05:38:49.319Z,99470.16
2019-03-08T05:41:16.619Z,99507.45
2019-03-08T05:43:43.626Z,99501.34
2019-03-08T05:46:10.583Z,99504.46
2019-03-08T05:48:37.656Z,99504.39
2019-03-08T05:51:04.586Z,99513.17
2019-03-08T05:53:31.567Z,99523.16
2019-03-08T05:55:58.512Z,99518.34
2019-03-08T05:58:25.704Z,99522.97
2019-03-08T06:00:52.717Z,99537.88
2019-03-08T06:03:19.820Z,99541.77
2019-03-08T06:05:46.772Z,99556.61
2019-03-08T06:08:13.751Z,99560.02
2019-03-08T06:10:40.703Z,99582.02
2019-03-08T06:13:07.728Z,99580.98
2019-03-08T06:15:34.656Z,99591.48
2019-03-08T06:18:01.621Z,99592.89
2019-03-08T06:20:28.624Z,99597.70
2019-03-08T06:22:55.607Z,99609.05
2019-03-08T06:25:22.601Z,99621.08
2019-03-08T06:27:49.648Z,99634.59
2019-03-08T06:30:16.620Z,99639.81
2019-03-08T06:32:44.739Z,99641.59
2019-03-08T06:35:12.391Z,99658.21
2019-03-08T06:37:40.772Z,99663.98
2019-03-08T06:40:08.204Z,99677.00
2019-03-08T06:42:35.184Z,99684.72
2019-03-08T06:45:02.219Z,99686.93
2019-03-08T06:47:29.249Z,99696.34
2019-03-08T06:49:56.194Z,99697.16
2019-03-08T06:52:23.209Z,99704.23
2019-03-08T06:54:50.147Z,99722.67
2019-03-08T06:57:17.140Z,99717.35
2019-03-08T06:59:48.895Z,99728.31
2019-03-08T07:02:17.032Z,99735.75
2019-03-08T07:04:44.047Z,99737.98
2019-03-08T07:07:11.340Z,99757.94
2019-03-08T07:09:38.298Z,99759.33
2019-03-08T07:12:05.260Z,99767.97
2019-03-08T07:14:32.236Z,99775.95
2019-03-08T07:16:59.180Z,99792.65
2019-03-08T07:19:26.162Z,99787.95
2019-03-08T07:21:59.701Z,99809.00
2019-03-08T07:25:01.675Z,99822.10
2019-03-08T07:28:00.400Z,99837.35
2019-03-08T07:30:46.992Z,99839.55
2019-03-08T07:33:23.804Z,99847.31
2019-03-08T07:36:10.659Z,99849.88
2019-03-08T07:38:45.457Z,99878.14
2019-03-08T07:41:32.037Z,99878.09
2019-03-08T07:44:07.541Z,99875.86
2019-03-08T07:47:00.476Z,99891.45
2019-03-08T07:49:52.482Z,99897.75
2019-03-08T07:52:44.857Z,99914.95
2019-03-08T07:55:22.411Z,99911.47
2019-03-08T07:58:00.845Z,99920.25
2019-03-08T08:00:45.040Z,99922.58
2019-03-08T08:03:23.643Z,99927.61
2019-03-08T08:06:06.874Z,99949.91
2019-03-08T08:08:55.468Z,99955.95
2019-03-08T08:11:38.682Z,99954.36
2019-03-08T08:14:28.443Z,99975.77
2019-03-08T08:17:01.773Z,99976.78
2019-03-08T08:20:16.048Z,99983.83
2019-03-08T08:22:55.114Z,99973.97
2019-03-08T08:25:44.730Z,99995.03
2019-03-08T08:28:29.675Z,100004.50
2019-03-08T08:31:14.980Z,100021.13
2019-03-08T08:34:04.702Z,100024.31
2019-03-08T08:36:57.492Z,100039.81
2019-03-08T08:39:53.192Z,100051.82
2019-03-08T08:42:38.699Z,100058.73
2019-03-08T08:45:13.099Z,100068.50
2019-03-08T08:48:05.494Z,100097.14
2019-03-08T08:50:52.095Z,100096.77
2019-03-08T08:53:38.698Z,100090.44
2019-03-08T08:56:23.576Z,100101.91
2019-03-08T08:59:10.232Z,100117.00
2019-03-08T09:01:46.194Z,100112.20
2019-03-08T09:04:20.026Z,100117.91
2019-03-08T09:07:10.040Z,100124.00
2019-03-08T09:09:54.594Z,100129.03
2019-03-08T09:12:41.957Z,100132.17
2019-03-08T09:15:15.179Z,100147.30
2019-03-08T09:18:01.837Z,100155.98
2019-03-08T09:20:57.337Z,100156.45
2019-03-08T09:23:36.912Z,100163.28
2019-03-08T09:26:18.888Z,100158.94
2019-03-08T09:29:11.353Z,100169.33
2019-03-08T09:31:48.271Z,100170.92
2019-03-08T09:34:21.940Z,100172.91
2019-03-08T09:37:06.985Z,100183.97
2019-03-08T09:39:56.130Z,100182.83
2019-03-08T09:42:37.775Z,100189.95
2019-03-08T09:45:23.079Z,100181.61
2019-03-08T09:48:08.113Z,100189.98
2019-03-08T09:51:10.073Z,100206.14
2019-03-08T09:53:42.769Z,100205.48
2019-03-08T09:56:32.170Z,100212.78
2019-03-08T09:59:22.850Z,100225.61
2019-03-08T10:02:15.340Z,100223.64
2019-03-08T10:04:53.747Z,100226.90
2019-03-08T10:07:31.419Z,100228.60
2019-03-08T10:10:22.529Z,100229.55
2019-03-08T10:13:18.093Z,100229.97
2019-03-08T10:16:02.217Z,100239.75
2019-03-08T10:18:57.367Z,100242.09
2019-03-08T10:21:47.396Z,100248.45
2019-03-08T10:24:33.984Z,100238.95
2019-03-08T10:27:12.219Z,100219.25
2019-03-08T10:30:01.358Z,100242.10
2019-03-08T10:32:37.638Z,100240.98
2019-03-08T10:35:43.582Z,100249.36
2019-03-08T10:38:28.798Z,100245.13
2019-03-08T10:41:18.426Z,100248.50
2019-03-08T10:44:23.116Z,100245.11
2019-03-08T10:46:59.257Z,100250.25
2019-03-08T10:49:55.042Z,100259.64
2019-03-08T10:52:37.399Z,100261.01
2019-03-08T10:55:10.949Z,100275.33
2019-03-08T10:58:03.118Z,100279.66
2019-03-08T11:00:48.521Z,100291.11
2019-03-08T11:03:43.730Z,100302.02
2019-03-08T11:06:16.518Z,100302.09
2019-03-08T11:08:49.359Z,100304.99
2019-03-08T11:11:24.920Z,100312.74
2019-03-08T11:14:10.584Z,100316.03
2019-03-08T11:17:03.236Z,100322.75
2019-03-08T11:19:54.650Z,100322.78
2019-03-08T11:22:53.394Z,100334.08
2019-03-08T11:25:38.836Z,100341.16
2019-03-08T11:28:27.202Z,100339.50
2019-03-08T11:31:03.632Z,100352.83
2019-03-08T11:33:38.699Z,100362.02
2019-03-08T11:36:31.115Z,100376.37
2019-03-08T11:39:05.324Z,100388.48
2019-03-08T11:41:44.494Z,100411.66
2019-03-08T11:44:23.488Z,100412.22
2019-03-08T11:47:03.494Z,100416.22
2019-03-08T11:49:56.278Z,100422.66
2019-03-08T11:52:41.619Z,100422.11
2019-03-08T11:55:28.834Z,100426.95
2019-03-08T11:58:24.354Z,100422.47
2019-03-08T12:01:17.129Z,100433.08
2019-03-08T12:04:06.575Z,100434.45
2019-03-08T12:06:44.026Z,100443.68
2019-03-08T12:09:33.427Z,100434.34
2019-03-08T12:12:38.474Z,100443.45
2019-03-08T12:15:27.260Z,100441.32
2019-03-08T12:18:15.771Z,100439.20
2019-03-08T12:20:49.965Z,100444.89
2019-03-08T12:23:39.444Z,100439.19
2019-03-08T12:26:21.111Z,100447.02
2019-03-08T12:29:00.892Z,100447.69
2019-03-08T12:31:42.594Z,100459.81
2019-03-08T12:34:28.239Z,100460.91
2019-03-08T12:37:13.396Z,100467.03
2019-03-08T12:40:13.444Z,100469.57
2019-03-08T12:43:08.353Z,100470.63
2019-03-08T12:45:55.786Z,100478.47
2019-03-08T12:48:41.313Z,100496.07
2019-03-08T12:51:18.435Z,100497.63
2019-03-08T12:54:03.009Z,100493.97
2019-03-08T12:56:40.779Z,100477.68
2019-03-08T12:59:16.967Z,100478.04
2019-03-08T13:02:09.427Z,100481.66
2019-03-08T13:05:05.117Z,100481.70
2019-03-08T13:07:54.228Z,100482.36
2019-03-08T13:10:21.492Z,100481.71
2019-03-08T13:12:48.461Z,100483.69
2019-03-08T13:15:15.939Z,100481.70
2019-03-08T13:17:42.897Z,100467.70
2019-03-08T13:20:13.146Z,100475.71
2019-03-08T13:22:40.071Z,100481.97
2019-03-08T13:25:07.107Z,100480.76
2019-03-08T13:27:34.246Z,100481.84
2019-03-08T13:30:01.228Z,100484.91
2019-03-08T13:32:28.194Z,100478.61
2019-03-08T13:34:55.169Z,100474.87
2019-03-08T13:37:22.187Z,100479.77
2019-03-08T13:39:49.214Z,100477.78
2019-03-08T13:42:16.224Z,100487.38
2019-03-08T13:44:43.412Z,100486.52
2019-03-08T13:47:10.490Z,100489.17
2019-03-08T13:49:37.677Z,100495.91
2019-03-08T13:52:04.621Z,100499.58
2019-03-08T13:54:31.598Z,100501.27
2019-03-08T13:56:58.541Z,100499.38
2019-03-08T13:59:25.618Z,100506.83
2019-03-08T14:01:52.876Z,100511.03
2019-03-08T14:04:19.848Z,100512.45
2019-03-08T14:06:46.813Z,100514.59
2019-03-08T14:09:15.424Z,100517.74
2019-03-08T14:11:42.869Z,100535.06
2019-03-08T14:14:09.850Z,100533.52
2019-03-08T14:16:36.848Z,100515.70
2019-03-08T14:19:04.037Z,100521.65
2019-03-08T14:21:30.984Z,100531.80
2019-03-08T14:23:57.920Z,100535.31
2019-03-08T14:26:25.106Z,100533.54
2019-03-08T14:28:52.049Z,100536.06
2019-03-08T14:31:41.248Z,100534.20
2019-03-08T14:34:10.692Z,100533.42
2019-03-08T14:36:39.293Z,100533.02
2019-03-08T14:39:08.049Z,100542.60
2019-03-08T14:41:40.122Z,100561.95
2019-03-08T14:44:36.143Z,100533.55
2019-03-08T14:47:22.711Z,100535.91
2019-03-08T14:49:50.011Z,100540.86
2019-03-08T14:52:16.958Z,100544.08
2019-03-08T14:54:46.446Z,100546.81
2019-03-08T14:57:23.819Z,100553.14
2019-03-08T14:59:41.998Z,100544.91
2019-03-08T15:02:08.994Z,100547.16
2019-03-08T15:04:36.327Z,100548.91
2019-03-08T15:07:04.626Z,100544.95
2019-03-08T15:09:32.172Z,100545.14
2019-03-08T15:11:59.516Z,100541.68
2019-03-08T15:14:30.275Z,100541.03
2019-03-08T15:16:56.622Z,100553.84
2019-03-08T15:19:23.682Z,100550.77
2019-03-08T15:21:50.650Z,100554.76
2019-03-08T15:24:17.603Z,100556.94
2019-03-08T15:26:44.646Z,100552.56
2019-03-08T15:29:13.588Z,100556.81
2019-03-08T15:31:40.721Z,100566.97
2019-03-08T15:34:07.882Z,100557.59
2019-03-08T15:36:34.847Z,100557.64
2019-03-08T15:39:03.905Z,100563.80
2019-03-08T15:41:31.135Z,100514.33
2019-03-08T15:43:58.959Z,100567.06
2019-03-08T15:46:26.877Z,100565.09
2019-03-08T15:48:54.776Z,100569.97
2019-03-08T15:51:25.249Z,100564.57
2019-03-08T15:53:51.789Z,100563.63
2019-03-08T15:56:18.762Z,100569.69
2019-03-08T15:58:45.724Z,100573.58
2019-03-08T16:01:12.706Z,100572.33
2019-03-08T16:03:39.782Z,100568.61
2019-03-08T16:06:07.488Z,100566.50
2019-03-08T16:08:35.847Z,100571.16
2019-03-08T16:11:03.530Z,100574.34
2019-03-08T16:13:30.478Z,100565.61
2019-03-08T16:15:57.445Z,100576.94
2019-03-08T16:18:24.644Z,100571.51
2019-03-08T16:20:51.584Z,100567.92
2019-03-08T16:23:18.548Z,100566.86
2019-03-08T16:25:47.869Z,100565.41
2019-03-08T16:28:14.413Z,100564.43
2019-03-08T16:30:43.884Z,100566.98
2019-03-08T16:33:18.934Z,100560.29
2019-03-08T16:36:01.271Z,100562.91
2019-03-08T16:38:37.532Z,100556.44
2019-03-08T16:41:18.110Z,100556.39
2019-03-08T16:43:51.338Z,100549.53
2019-03-08T16:46:46.938Z,100541.48
2019-03-08T16:49:19.953Z,100541.77
2019-03-08T16:52:06.803Z,100542.38
2019-03-08T16:54:44.605Z,100538.23
2019-03-08T16:57:21.127Z,100538.70
2019-03-08T16:59:53.764Z,100541.89
2019-03-08T17:02:39.038Z,100532.73
2019-03-08T17:05:25.647Z,100533.24
2019-03-08T17:08:21.129Z,100533.38
2019-03-08T17:10:57.643Z,100537.34
2019-03-08T17:13:34.143Z,100539.95
2019-03-08T17:16:29.750Z,100537.91
2019-03-08T17:19:22.480Z,100534.84
2019-03-08T17:22:18.141Z,100528.44
2019-03-08T17:25:19.870Z,100526.38
2019-03-08T17:27:59.839Z,100528.09
2019-03-08T17:30:38.319Z,100524.82
2019-03-08T17:33:15.945Z,100524.86
2019-03-08T17:36:02.519Z,100539.23
2019-03-08T17:38:55.222Z,100544.48
2019-03-08T17:41:40.600Z,100513.97
2019-03-08T17:44:18.380Z,100531.06
2019-03-08T17:46:53.728Z,100527.56
2019-03-08T17:49:30.083Z,100529.19
2019-03-08T17:52:06.423Z,100535.33
2019-03-08T17:54:53.064Z,100533.58
2019-03-08T17:57:35.896Z,100531.83
2019-03-08T18:00:13.271Z,100533.53
2019-03-08T18:03:14.991Z,100531.38
2019-03-08T18:05:56.598Z,100534.43
2019-03-08T18:08:40.424Z,100532.33
2019-03-08T18:11:29.890Z,100527.97
2019-03-08T18:14:04.492Z,100527.56
2019-03-08T18:16:44.170Z,100531.06
2019-03-08T18:19:36.647Z,100524.81
2019-03-08T18:22:17.004Z,100533.48
2019-03-08T18:25:04.300Z,100531.19
2019-03-08T18:27:45.167Z,100539.35
2019-03-08T18:30:30.104Z,100533.23
2019-03-08T18:33:22.589Z,100538.91
2019-03-08T18:36:12.158Z,100541.70
2019-03-08T18:39:02.339Z,100544.60
2019-03-08T18:41:37.388Z,100542.09
2019-03-08T18:44:10.406Z,100531.39
2019-03-08T18:46:59.834Z,100529.13
2019-03-08T18:49:46.427Z,100533.70
2019-03-08T18:52:31.734Z,100531.64
2019-03-08T18:55:12.949Z,100520.36
2019-03-08T18:58:08.329Z,100519.12
2019-03-08T19:01:03.558Z,100518.27
2019-03-08T19:03:49.437Z,100519.16
2019-03-08T19:06:32.357Z,100516.06
2019-03-08T19:09:24.757Z,100510.84
2019-03-08T19:12:04.318Z,100506.99
2019-03-08T19:15:03.289Z,100506.59
2019-03-08T19:17:58.839Z,100512.26
2019-03-08T19:20:38.931Z,100522.52
2019-03-08T19:23:10.186Z,100513.02
2019-03-08T19:25:50.018Z,100509.61
2019-03-08T19:28:36.613Z,100500.94
2019-03-08T19:31:18.758Z,100498.34
2019-03-08T19:33:53.205Z,100501.84
2019-03-08T19:36:42.619Z,100498.88
2019-03-08T19:39:18.742Z,100500.19
2019-03-08T19:42:00.250Z,100507.98
2019-03-08T19:44:40.370Z,100502.34
2019-03-08T19:47:42.408Z,100504.55
2019-03-08T19:50:38.006Z,100487.16
2019-03-08T19:53:17.923Z,100495.19
2019-03-08T19:56:10.570Z,100480.80
2019-03-08T19:58:49.362Z,100476.26
2019-03-08T20:01:41.769Z,100480.41
2019-03-08T20:04:34.450Z,100474.50
2019-03-08T20:07:12.509Z,100475.44
2019-03-08T20:10:01.932Z,100474.09
2019-03-08T20:12:57.414Z,100472.35
2019-03-08T20:15:43.028Z,100466.28
2019-03-08T20:18:32.746Z,100468.39
2019-03-08T20:21:31.452Z,100473.30
2019-03-08T20:24:24.145Z,100495.52
2019-03-08T20:27:16.567Z,100525.63
2019-03-08T20:29:50.650Z,100539.56
2019-03-08T20:32:42.641Z,100545.63
2019-03-08T20:35:41.307Z,100521.45
2019-03-08T20:38:31.721Z,100461.20
2019-03-08T20:41:30.760Z,100473.95
2019-03-08T20:44:13.874Z,100469.15
2019-03-08T20:46:47.409Z,100479.91
2019-03-08T20:49:14.374Z,100479.48
2019-03-08T20:51:41.357Z,100472.86
2019-03-08T20:54:08.320Z,100465.17
2019-03-08T20:56:35.547Z,100466.15
2019-03-08T20:59:02.666Z,100466.48
2019-03-08T21:01:32.904Z,100459.56
2019-03-08T21:04:00.414Z,100454.45
2019-03-08T21:06:27.524Z,100453.11
2019-03-08T21:08:54.564Z,100447.91
2019-03-08T21:11:21.539Z,100448.36
2019-03-08T21:13:48.724Z,100442.95
2019-03-08T21:16:15.744Z,100439.42
2019-03-08T21:18:42.892Z,100442.05
2019-03-08T21:21:10.157Z,100441.97
2019-03-08T21:23:37.571Z,100437.22
2019-03-08T21:26:05.015Z,100438.64
2019-03-08T21:28:32.250Z,100426.50
2019-03-08T21:30:59.281Z,100433.11
2019-03-08T21:33:26.461Z,100427.92
2019-03-08T21:35:53.732Z,100425.28
2019-03-08T21:38:21.298Z,100420.34
2019-03-08T21:40:49.170Z,100417.59
2019-03-08T21:43:16.195Z,100418.94
2019-03-08T21:45:43.220Z,100411.66
2019-03-08T21:48:10.230Z,100413.63
2019-03-08T21:50:37.452Z,100414.40
2019-03-08T21:53:04.604Z,100400.11
2019-03-08T21:55:31.587Z,100399.25
2019-03-08T21:57:58.764Z,100398.28
2019-03-08T22:00:26.093Z,100382.64
2019-03-08T22:02:53.114Z,100373.50
2019-03-08T22:05:26.126Z,100375.75
2019-03-08T22:07:53.152Z,100376.42
2019-03-08T22:10:39.579Z,100368.03
2019-03-08T22:13:06.620Z,100359.56
2019-03-08T22:15:33.627Z,100349.33
2019-03-08T22:18:00.921Z,100341.48
2019-03-08T22:20:27.845Z,100333.36
2019-03-08T22:22:54.840Z,100331.50
2019-03-08T22:25:22.595Z,100326.20
2019-03-08T22:27:49.596Z,100314.37
2019-03-08T22:30:16.602Z,100309.39
2019-03-08T22:32:43.550Z,100302.50
2019-03-08T22:35:10.573Z,100297.75
2019-03-08T22:37:37.533Z,100290.09
2019-03-08T22:40:04.791Z,100292.26
2019-03-08T22:42:31.745Z,100285.80
2019-03-08T22:44:58.776Z,100284.09
2019-03-08T22:47:25.726Z,100280.92
2019-03-08T22:49:52.725Z,100270.73
2019-03-08T22:52:19.675Z,100272.09
2019-03-08T22:54:46.650Z,100272.45
2019-03-08T22:57:13.609Z,100257.84
2019-03-08T22:59:40.630Z,100256.94
2019-03-08T23:02:08.730Z,100255.12
2019-03-08T23:04:35.759Z,100252.59
2019-03-08T23:07:02.735Z,100251.55
2019-03-08T23:09:29.821Z,100253.19
2019-03-08T23:11:56.774Z,100245.91
2019-03-08T23:14:23.830Z,100239.06
2019-03-08T23:16:50.870Z,100244.61
2019-03-08T23:19:17.847Z,100239.49
2019-03-08T23:21:44.807Z,100237.63
2019-03-08T23:24:11.835Z,100227.16
2019-03-08T23:26:48.088Z,100216.55
2019-03-08T23:29:28.595Z,100218.45
2019-03-08T23:32:05.567Z,100205.36
2019-03-08T23:34:32.773Z,100207.06
2019-03-08T23:36:59.717Z,100202.80
2019-03-08T23:39:26.749Z,100206.59
2019-03-08T23:41:53.741Z,100204.39
2019-03-08T23:44:20.731Z,100199.77
2019-03-08T23:46:47.671Z,100192.73
2019-03-08T23:49:15.057Z,100195.53
2019-03-08T23:51:42.080Z,100171.69
2019-03-08T23:54:09.246Z,100189.94
2019-03-08T23:56:36.303Z,100188.83
2019-03-08T23:59:03.281Z,100192.09
